Date,TemperatureHighF,TemperatureAvgF,TemperatureLowF,DewpointHighF,DewpointAvgF,DewpointLowF,HumidityHigh,HumidityAvg,HumidityLow,PressureMaxIn,PressureMinIn,WindSpeedMaxMPH,WindSpeedAvgMPH,GustSpeedMaxMPH,PrecipitationSumIn
2013-4-1,66,49,34,53,36,14,95,67,37,29.83,29.54,0,-999,0,0.00
2013-4-2,53,38,26,21,16,12,60,42,27,30.00,29.83,0,-999,0,0.00
2013-4-3,54,39,26,22,15,10,57,39,26,30.22,30.00,0,-999,0,0.00
2013-4-4,61,43,26,29,21,12,63,43,27,30.31,29.98,0,-999,0,0.00
2013-4-5,71,51,38,40,26,19,72,42,23,29.99,29.62,0,-999,0,0.00
2013-4-6,63,44,32,26,18,13,62,38,20,30.21,29.91,0,-999,0,0.00
2013-4-7,67,51,34,43,35,24,78,57,32,30.21,29.88,0,-999,0,0.00
2013-4-8,85,62,42,53,45,38,89,59,29,29.98,29.86,0,-999,0,0.00
2013-4-9,84,69,52,59,46,40,84,50,22,29.88,29.78,0,-999,0,0.00
2013-4-10,93,68,56,62,53,48,94,63,31,29.84,29.69,0,-999,0,0.00
2013-4-11,64,57,48,58,52,42,95,84,65,29.92,29.67,0,-999,0,0.00
2013-4-12,48,44,41,42,41,40,95,90,75,29.89,29.61,0,-999,0,0.00
2013-4-13,68,50,37,54,39,35,96,70,43,29.88,29.64,0,-999,0,0.00
2013-4-14,70,53,40,44,35,30,88,55,29,30.10,29.87,0,-999,0,0.00
2013-4-15,64,52,42,40,34,28,72,52,36,30.27,30.10,0,-999,0,0.00
2013-4-16,78,60,46,58,50,39,86,70,48,30.26,30.00,0,-999,0,0.00
2013-4-17,78,62,51,56,45,34,92,57,26,30.19,30.01,0,-999,0,0.00
2013-4-18,61,53,45,52,45,38,91,76,58,30.23,29.98,0,-999,0,0.00
2013-4-19,83,67,55,68,60,52,94,82,57,29.99,29.51,0,-999,0,0.00
2013-4-20,60,52,44,54,38,25,94,62,38,30.21,29.60,0,-999,0,0.00
2013-4-21,66,46,33,33,25,20,64,45,27,30.52,30.21,0,-999,0,0.00
2013-4-22,66,46,31,39,32,27,88,62,34,30.55,30.38,0,-999,0,0.00
2013-4-23,53,45,39,44,37,31,87,72,61,30.38,30.02,0,-999,0,0.00
2013-4-24,80,57,33,56,46,31,93,71,41,30.03,29.69,0,-999,0,0.00
2013-4-25,76,57,42,54,35,28,82,46,25,30.17,29.75,0,-999,0,0.00
2013-4-26,79,54,35,46,33,28,86,50,25,30.31,30.16,0,-999,0,0.00
2013-4-27,85,57,37,45,35,29,78,48,22,30.34,30.16,0,-999,0,0.00
2013-4-28,87,59,38,52,39,31,85,51,27,30.21,30.07,0,-999,0,0.00
2013-4-29,55,52,50,51,48,38,95,86,55,30.13,30.06,0,-999,0,0.00
2013-4-30,70,56,42,52,43,28,95,65,27,30.23,30.09,0,-999,0,0.00